Details From OOMS - Seeb Intl
To OIZC - Chah Bahar
Flight Number -
Tags Decoded
Created
Modified
Stats Distance 158 nm / 293 km
Max Altitude 0 ft / 0 m
Waypoints 2
Social Downloads 1
Likes 0
Share VATSIM

Download

Looking for another format? Having issues loading an existing format? Contact us
Advertisement - Login to hide

Notes

Decoded

Route

OOMS OIZC

ID Type Via Altitude Latitude Longitude Leg Dist Tot Dist Heading (true) Name
O OOMS APT - 0 ft / 0 m 23.59477˚ 58.30194˚ - 0 nm - -
O OIZC APT - 0 ft / 0 m 25.44153˚ 60.36515˚ 158 nm 158 nm 45° / 46° -

Altitude Profile

Advertisement - Login to hide

OOMS

Details ICAO OOMS (MCT)
Name SEEB INTL
Region Oman
Timezone Asia/Muscat (UTC+4.0)
Stats Elevation 48 ft / 15 m (AMSL)
Location 23.595536° 58.293781°
Runways 2
Magnetic Variation 1.460° E

METAR

OOMS 160850Z 04008KT 9999 SCT025 FEW035CB 24/14 Q1018 NOSIG

Decode

TAF

TAF OOMS 160500Z 1606/1712 09018KT 8000 SCT035 PROB30 TEMPO 1613/1617 4000 -TSRA FEW025CB BKN030 BECMG 1619/1621 16008KT BECMG 1706/1708 01014KT PROB30 TEMPO 1708/1711 4000 -TSRA FEW025CB BKN030

Decode

Departure Runways

ID Width Length Bearing (true) Bearing (mag) Surface Threshold Offset Overrun Length
02 98 ft / 30 m 2,498 ft / 761 m 18.94° 17.48° Dirt 0 ft / 0 m 0 ft / 0 m
08 148 ft / 45 m 11,759 ft / 3,584 m 84.98° 83.52° Asphalt 1,375 ft / 419 m 200 ft / 61 m
20 98 ft / 30 m 2,498 ft / 761 m 198.94° 197.48° Dirt 0 ft / 0 m 0 ft / 0 m
26 148 ft / 45 m 11,759 ft / 3,584 m 264.99° 263.53° Asphalt 0 ft / 0 m 200 ft / 61 m

OIZC

Details ICAO OIZC (ZBR)
Name CHAH BAHAR
Region Iran
Timezone Asia/Tehran (UTC+3.5)
Stats Elevation 43 ft / 13 m (AMSL)
Location 25.443349° 60.382115°
Runways 2
Magnetic Variation 1.619° E

METAR

Not found

TAF

TAF OIZC 160530Z 1606/1712 02004MPS 7000 FEW035 SCT100 TEMPO 1618/1703 4000 BR HZ

Decode

Destination Runways

ID Width Length Bearing (true) Bearing (mag) Surface Threshold Offset Overrun Length
09L 150 ft / 46 m 12,496 ft / 3,809 m 90.91° 89.29° Asphalt 0 ft / 0 m 1,181 ft / 360 m
09R 150 ft / 46 m 9,829 ft / 2,996 m 90.93° 89.31° Asphalt 0 ft / 0 m 1,181 ft / 360 m
27L 150 ft / 46 m 9,829 ft / 2,996 m 270.94° 269.32° Asphalt 0 ft / 0 m 1,181 ft / 360 m
27R 150 ft / 46 m 12,496 ft / 3,809 m 270.93° 269.31° Asphalt 0 ft / 0 m 1,181 ft / 360 m

Popular Alternatives